Time;durP1;ratioP1;P1;durP2;ratioP2;P2;SDS_P1;SDS_P2;PMS_P1;PMS_P2;Temp;Humidity;BMP_temperature;BMP_pressure;BME280_temperature;BME280_humidity;BME280_pressure;Samples;Min_cycle;Max_cycle;Signal;HPM_P1;HPM_P2
2022/05/02 00:01:14;;;;;;;9.30;7.70;;;;;;;9.05;62.71;96870.25;107962;1264;40386;-79
2022/05/02 00:03:44;;;;;;;10.20;7.50;;;;;;;9.00;62.79;96864.98;107916;1265;45198;-79
2022/05/02 00:06:15;;;;;;;13.30;8.40;;;;;;;8.99;62.91;96860.86;107893;1265;45106;-79
2022/05/02 00:08:46;;;;;;;11.50;8.60;;;;;;;9.03;62.91;96860.95;108004;1265;29921;-79
2022/05/02 00:11:17;;;;;;;10.90;8.60;;;;;;;9.12;62.63;96861.73;107837;1265;38856;-79
2022/05/02 00:13:48;;;;;;;11.50;8.30;;;;;;;9.14;62.60;96859.52;107970;1265;33320;-80
2022/05/02 00:16:19;;;;;;;13.10;9.30;;;;;;;9.11;62.59;96856.34;107969;1265;39237;-80
2022/05/02 00:18:50;;;;;;;10.50;8.10;;;;;;;9.10;62.51;96857.19;105019;1263;2002263;-79
2022/05/02 00:21:21;;;;;;;12.10;8.50;;;;;;;9.06;62.66;96858.89;107963;1265;34717;-79
2022/05/02 00:23:51;;;;;;;10.30;8.10;;;;;;;9.00;62.66;96865.11;107976;1265;32725;-79
2022/05/02 00:26:22;;;;;;;11.30;8.40;;;;;;;8.94;62.62;96863.03;107961;1265;49521;-79
2022/05/02 00:28:53;;;;;;;10.40;8.20;;;;;;;8.95;63.01;96859.96;107962;1265;30688;-79
2022/05/02 00:31:24;;;;;;;11.00;7.40;;;;;;;8.87;63.30;96857.98;107929;1264;41882;-79
2022/05/02 00:33:55;;;;;;;10.30;7.80;;;;;;;8.82;63.72;96858.39;108031;1265;32893;-79
2022/05/02 00:36:26;;;;;;;10.10;8.10;;;;;;;8.79;63.79;96864.16;107896;1265;38650;-79
2022/05/02 00:38:57;;;;;;;10.50;8.20;;;;;;;8.86;63.54;96862.80;107952;1265;37698;-79
2022/05/02 00:41:28;;;;;;;11.50;8.40;;;;;;;8.89;63.41;96861.65;107892;1265;38352;-79
2022/05/02 00:43:59;;;;;;;10.20;7.90;;;;;;;8.92;63.28;96863.51;107979;1265;42386;-79
2022/05/02 00:46:30;;;;;;;11.60;7.80;;;;;;;8.98;63.29;96863.61;107921;1265;42177;-79
2022/05/02 00:49:01;;;;;;;9.90;8.00;;;;;;;9.03;63.20;96863.58;107896;1265;33109;-79
2022/05/02 00:51:32;;;;;;;13.10;9.00;;;;;;;9.07;63.19;96858.40;108049;1263;30640;-79
2022/05/02 00:54:04;;;;;;;9.90;8.00;;;;;;;9.06;63.09;96859.67;107969;1265;40652;-79
2022/05/02 00:56:35;;;;;;;10.90;7.90;;;;;;;9.02;63.11;96862.53;107976;1265;43217;-79
2022/05/02 00:59:07;;;;;;;10.80;8.40;;;;;;;9.02;63.02;96860.47;108046;1265;34255;-79
2022/05/02 01:01:37;;;;;;;9.80;7.80;;;;;;;9.00;62.95;96863.93;107983;1265;39502;-76
2022/05/02 01:04:08;;;;;;;9.80;8.00;;;;;;;8.98;62.95;96863.98;107996;1265;39738;-78
2022/05/02 01:09:27;;;;;;;10.60;8.30;;;;;;;8.98;62.98;96858.69;107956;1265;35682;-79
2022/05/02 01:11:58;;;;;;;10.60;7.90;;;;;;;8.98;63.08;96857.16;108015;1265;34264;-79
2022/05/02 01:14:32;;;;;;;9.50;7.90;;;;;;;8.93;63.24;96855.99;107962;1264;41877;-79
2022/05/02 01:17:04;;;;;;;10.50;8.10;;;;;;;8.76;63.43;96859.86;108030;1265;32202;-79
2022/05/02 01:19:36;;;;;;;11.40;8.60;;;;;;;8.57;64.04;96855.58;108090;1265;31046;-80
2022/05/02 01:22:08;;;;;;;13.40;9.10;;;;;;;8.55;64.03;96850.79;108046;1264;39473;-79
2022/05/02 01:24:41;;;;;;;10.80;8.40;;;;;;;8.63;63.90;96851.84;107967;1265;30099;-79
2022/05/02 01:27:14;;;;;;;9.90;8.40;;;;;;;8.69;63.80;96851.05;108004;1265;44502;-79
2022/05/02 01:29:46;;;;;;;11.00;8.50;;;;;;;8.80;63.48;96847.02;107997;1264;34656;-79
2022/05/02 01:32:17;;;;;;;11.00;8.40;;;;;;;8.83;63.41;96845.76;107905;1265;39784;-79
2022/05/02 01:34:48;;;;;;;10.20;8.30;;;;;;;8.84;63.11;96842.58;107929;1264;41573;-79
2022/05/02 01:37:19;;;;;;;11.80;8.40;;;;;;;8.88;62.94;96839.02;106929;1265;1289514;-79
2022/05/02 01:39:50;;;;;;;10.30;8.20;;;;;;;8.87;62.84;96839.33;107977;1265;42151;-79
2022/05/02 01:42:21;;;;;;;10.30;8.00;;;;;;;8.89;62.85;96839.61;107950;1265;44166;-79
2022/05/02 01:44:51;;;;;;;9.40;8.40;;;;;;;8.86;62.89;96840.41;107941;1264;55878;-79
2022/05/02 01:47:23;;;;;;;10.70;8.50;;;;;;;8.86;62.82;96839.21;108016;1264;37341;-79
2022/05/02 01:49:54;;;;;;;11.00;8.10;;;;;;;8.86;62.79;96842.33;107941;1264;34623;-79
2022/05/02 01:52:25;;;;;;;11.50;8.70;;;;;;;8.86;62.81;96841.43;107966;1264;36486;-79
2022/05/02 01:54:55;;;;;;;11.30;8.80;;;;;;;8.80;62.81;96839.79;107984;1265;34241;-79
2022/05/02 01:57:26;;;;;;;11.80;8.00;;;;;;;8.79;62.80;96837.77;107950;1265;38645;-79
2022/05/02 01:59:57;;;;;;;12.30;8.90;;;;;;;8.76;62.91;96838.77;107955;1264;36461;-79
2022/05/02 02:02:26;;;;;;;;;;;;;;;8.75;62.93;96839.30;107929;1263;40786;-79
2022/05/02 02:07:55;;;;;;;9.50;7.70;;;;;;;8.74;63.01;96838.45;107760;1265;45371;-79
2022/05/02 02:10:26;;;;;;;10.50;8.80;;;;;;;8.73;62.92;96837.18;107754;1266;36823;-80
2022/05/02 02:12:57;;;;;;;11.50;9.30;;;;;;;8.72;62.99;96834.69;107938;1264;45670;-79
2022/05/02 02:15:28;;;;;;;9.80;8.00;;;;;;;8.64;63.18;96834.94;107910;1264;39892;-79
2022/05/02 02:17:59;;;;;;;10.50;7.70;;;;;;;8.50;63.40;96834.89;107941;1265;35364;-80
2022/05/02 02:20:31;;;;;;;10.60;7.90;;;;;;;8.44;63.69;96835.27;107903;1264;43379;-79
2022/05/02 02:23:02;;;;;;;9.60;7.70;;;;;;;8.36;63.93;96832.73;107984;1264;40566;-79
2022/05/02 02:25:33;;;;;;;11.00;7.60;;;;;;;8.36;63.99;96832.98;107970;1264;33362;-79
2022/05/02 02:28:04;;;;;;;11.40;7.40;;;;;;;8.41;63.93;96834.20;108026;1265;32323;-80
2022/05/02 02:30:35;;;;;;;8.70;6.80;;;;;;;8.38;64.07;96829.77;108024;1265;45679;-79
2022/05/02 02:33:06;;;;;;;11.20;7.70;;;;;;;8.31;64.23;96830.23;108030;1265;36046;-79
2022/05/02 02:35:37;;;;;;;9.20;7.00;;;;;;;8.26;64.57;96829.84;108018;1265;44421;-79
2022/05/02 02:38:12;;;;;;;8.40;6.70;;;;;;;8.12;65.06;96829.51;107910;1265;80504;-79
2022/05/02 02:40:44;;;;;;;12.30;9.10;;;;;;;8.04;65.39;96829.36;107902;1264;117260;-79
2022/05/02 02:43:16;;;;;;;13.60;9.80;;;;;;;8.09;65.65;96834.77;107860;1264;76311;-79
2022/05/02 02:45:47;;;;;;;11.60;9.60;;;;;;;8.20;65.78;96833.61;107778;1265;83791;-79
2022/05/02 02:48:19;;;;;;;13.70;10.10;;;;;;;8.32;65.86;96833.20;107793;1265;127186;-79
2022/05/02 02:50:52;;;;;;;12.80;9.50;;;;;;;8.39;65.73;96835.46;107759;1265;81862;-80
2022/05/02 02:53:23;;;;;;;11.10;9.20;;;;;;;8.40;65.64;96836.16;108026;1264;84992;-79
2022/05/02 02:55:55;;;;;;;12.10;9.00;;;;;;;8.40;65.58;96838.48;107938;1264;84079;-79
2022/05/02 02:58:26;;;;;;;10.70;8.90;;;;;;;8.47;65.52;96836.04;107968;1264;74967;-79
2022/05/02 03:00:58;;;;;;;11.00;8.60;;;;;;;8.52;65.40;96839.85;107819;1265;88301;-79
2022/05/02 03:03:30;;;;;;;9.00;7.60;;;;;;;8.54;65.63;96838.85;107720;1264;122689;-80
2022/05/02 03:06:05;;;;;;;9.70;7.50;;;;;;;8.55;65.51;96835.89;107833;1265;86449;-79
2022/05/02 03:08:40;;;;;;;11.40;7.50;;;;;;;8.56;65.49;96838.70;107921;1265;126143;-79
2022/05/02 03:11:11;;;;;;;9.20;7.10;;;;;;;8.56;65.19;96838.38;105858;1265;1477563;-79
2022/05/02 03:13:44;;;;;;;8.70;7.40;;;;;;;8.54;65.17;96833.89;104722;1265;2172648;-79
2022/05/02 03:16:15;;;;;;;8.60;7.10;;;;;;;8.55;65.31;96833.25;106501;1264;1762552;-79
2022/05/02 03:18:46;;;;;;;9.30;7.60;;;;;;;8.56;65.14;96835.94;107944;1265;68002;-79
2022/05/02 03:21:21;;;;;;;11.60;8.10;;;;;;;8.62;64.97;96829.75;106994;1265;1337079;-79
2022/05/02 03:23:55;;;;;;;11.80;8.20;;;;;;;8.65;65.35;96833.24;105511;1264;1973630;-79
2022/05/02 03:26:26;;;;;;;14.00;9.50;;;;;;;8.67;65.58;96834.63;108032;1265;48470;-79
2022/05/02 03:28:57;;;;;;;11.60;9.50;;;;;;;8.70;65.75;96832.23;108005;1264;58063;-79
2022/05/02 03:31:28;;;;;;;12.30;9.80;;;;;;;8.70;66.02;96828.75;106081;1264;2502678;-79
2022/05/02 03:34:00;;;;;;;13.90;10.30;;;;;;;8.66;66.15;96828.44;106319;1265;2140524;-79
2022/05/02 03:36:34;;;;;;;13.20;9.20;;;;;;;8.59;66.57;96827.47;107994;1265;62128;-78
2022/05/02 03:39:13;;;;;;;8.90;7.20;;;;;;;8.57;66.58;96827.23;107968;1265;42976;-77
2022/05/02 03:41:45;;;;;;;9.10;7.50;;;;;;;8.58;66.42;96827.67;107958;1265;80163;-77
2022/05/02 03:44:16;;;;;;;12.70;8.60;;;;;;;8.67;66.23;96823.94;107848;1264;82498;-77
2022/05/02 03:46:48;;;;;;;10.70;8.80;;;;;;;8.76;66.13;96827.30;107819;1265;74940;-78
2022/05/02 03:49:19;;;;;;;10.60;8.70;;;;;;;8.83;65.90;96827.46;107874;1265;76598;-78
2022/05/02 03:51:50;;;;;;;11.00;8.30;;;;;;;8.92;65.65;96827.59;107971;1265;86516;-77
2022/05/02 03:54:23;;;;;;;13.20;8.50;;;;;;;8.97;65.49;96828.02;107868;1264;76812;-77
2022/05/02 03:56:54;;;;;;;11.20;8.80;;;;;;;9.00;65.21;96826.44;107740;1265;118455;-77
2022/05/02 03:59:25;;;;;;;11.30;8.50;;;;;;;9.02;65.19;96824.87;107806;1265;91609;-77
2022/05/02 04:01:57;;;;;;;12.90;8.30;;;;;;;9.04;64.81;96825.50;106132;1265;2523357;-77
2022/05/02 04:04:29;;;;;;;12.00;9.10;;;;;;;9.13;64.61;96827.88;107929;1265;67298;-77
2022/05/02 04:06:59;;;;;;;10.60;8.40;;;;;;;9.19;64.53;96826.00;106316;1265;1922966;-77
2022/05/02 04:09:30;;;;;;;10.90;8.60;;;;;;;9.27;64.23;96826.90;108071;1265;64999;-77
2022/05/02 04:12:02;;;;;;;11.90;8.90;;;;;;;9.38;63.99;96826.68;106031;1265;2508163;-77
2022/05/02 04:14:34;;;;;;;11.10;9.00;;;;;;;9.50;63.77;96823.13;106443;1265;1785001;-77
2022/05/02 04:17:06;;;;;;;11.80;9.00;;;;;;;9.62;63.57;96828.22;108067;1265;70131;-79
2022/05/02 04:19:39;;;;;;;11.50;8.70;;;;;;;9.73;63.53;96826.14;108087;1264;73232;-77
2022/05/02 04:22:10;;;;;;;11.30;9.10;;;;;;;9.84;63.37;96827.55;107863;1264;99924;-76
2022/05/02 04:24:42;;;;;;;10.40;8.00;;;;;;;9.97;63.26;96828.16;107987;1265;68718;-77
2022/05/02 04:27:13;;;;;;;11.70;8.90;;;;;;;10.13;63.06;96831.77;103212;1265;2379023;-77
2022/05/02 04:29:44;;;;;;;12.60;9.30;;;;;;;10.24;62.96;96830.75;107914;1264;78012;-77
2022/05/02 04:32:16;;;;;;;12.90;10.50;;;;;;;10.34;62.93;96831.05;107801;1264;75538;-77
2022/05/02 04:34:46;;;;;;;12.70;9.80;;;;;;;10.42;62.86;96834.48;107924;1265;71078;-77
2022/05/02 04:37:17;;;;;;;12.70;9.30;;;;;;;10.48;62.70;96829.83;108006;1265;59800;-77
2022/05/02 04:39:49;;;;;;;13.80;8.70;;;;;;;10.54;62.20;96827.94;108057;1264;42115;-77
2022/05/02 04:42:20;;;;;;;10.50;8.00;;;;;;;10.55;61.83;96831.23;108101;1264;40391;-77
2022/05/02 04:44:51;;;;;;;10.90;8.30;;;;;;;10.58;61.97;96832.34;108106;1265;37102;-77
2022/05/02 04:47:22;;;;;;;11.00;8.00;;;;;;;10.57;61.67;96829.42;108082;1263;40581;-77
2022/05/02 04:49:53;;;;;;;11.60;8.00;;;;;;;10.54;61.54;96831.02;108067;1264;41536;-77
2022/05/02 04:52:24;;;;;;;9.40;8.40;;;;;;;10.52;61.60;96833.57;108134;1265;39865;-77
2022/05/02 04:54:55;;;;;;;11.40;8.90;;;;;;;10.49;61.60;96829.66;108095;1265;38708;-78
2022/05/02 04:57:26;;;;;;;10.40;8.50;;;;;;;10.49;61.56;96829.71;108028;1265;40007;-78
2022/05/02 04:59:57;;;;;;;10.50;8.40;;;;;;;10.51;61.25;96828.86;108024;1265;44383;-77
2022/05/02 05:02:28;;;;;;;11.40;8.60;;;;;;;10.54;61.41;96828.63;107929;1265;43544;-77
2022/05/02 05:04:59;;;;;;;9.90;7.50;;;;;;;10.58;61.21;96832.29;107969;1264;29400;-77
2022/05/02 05:07:30;;;;;;;8.80;7.50;;;;;;;10.60;60.89;96832.33;107967;1264;49694;-77
2022/05/02 05:10:01;;;;;;;10.70;8.00;;;;;;;10.58;60.71;96832.23;107960;1265;33509;-77
2022/05/02 05:12:42;;;;;;;12.10;8.70;;;;;;;10.57;60.91;96836.69;107967;1265;43474;-78
2022/05/02 05:18:24;;;;;;;12.40;9.20;;;;;;;10.61;61.21;96838.52;107857;1265;41631;-79
2022/05/02 05:21:03;;;;;;;11.10;8.50;;;;;;;10.64;61.53;96842.00;107968;1265;33334;-78
2022/05/02 05:23:57;;;;;;;9.30;8.30;;;;;;;10.67;61.67;96841.08;108003;1265;37579;-78
2022/05/02 05:26:44;;;;;;;10.90;8.20;;;;;;;10.75;61.93;96839.30;107942;1264;32982;-79
2022/05/02 05:29:34;;;;;;;10.40;7.90;;;;;;;10.83;61.45;96838.61;108035;1263;32780;-78
2022/05/02 05:32:28;;;;;;;12.10;8.60;;;;;;;10.84;61.33;96836.45;108047;1264;30907;-78
2022/05/02 05:35:06;;;;;;;10.00;8.40;;;;;;;10.85;61.43;96829.60;107995;1265;34300;-77
2022/05/02 05:38:00;;;;;;;11.30;8.40;;;;;;;10.89;61.46;96830.58;108010;1264;37715;-77
2022/05/02 05:40:38;;;;;;;10.20;8.60;;;;;;;11.09;61.70;96827.70;107905;1264;32968;-78
2022/05/02 05:43:38;;;;;;;10.60;8.80;;;;;;;11.32;61.70;96830.24;108012;1265;42070;-77
2022/05/02 05:46:28;;;;;;;11.30;8.20;;;;;;;11.61;61.57;96828.45;107997;1265;35881;-77
2022/05/02 05:49:09;;;;;;;11.00;8.40;;;;;;;12.53;62.06;96831.34;107919;1263;32869;-79
2022/05/02 05:51:49;;;;;;;11.40;7.90;;;;;;;14.43;60.01;96824.34;107924;1265;70277;-78
2022/05/02 05:54:35;;;;;;;9.90;7.50;;;;;;;16.04;55.95;96824.52;106633;1265;1393780;-79
2022/05/02 05:57:24;;;;;;;9.80;7.70;;;;;;;16.69;52.85;96824.06;107953;1264;77949;-80
2022/05/02 06:00:07;;;;;;;8.90;7.20;;;;;;;16.21;51.24;96826.23;108112;1264;33235;-79
2022/05/02 06:03:03;;;;;;;8.70;7.50;;;;;;;15.39;51.89;96831.87;108107;1264;34927;-78
2022/05/02 06:05:43;;;;;;;10.10;6.80;;;;;;;15.22;52.26;96825.48;107999;1265;69203;-79
2022/05/02 06:08:19;;;;;;;10.80;7.20;;;;;;;16.67;52.34;96823.82;108079;1265;33446;-80
2022/05/02 06:10:50;;;;;;;7.30;6.50;;;;;;;18.60;50.35;96823.60;107874;1264;46651;-80
2022/05/02 06:13:25;;;;;;;9.90;7.00;;;;;;;19.59;48.37;96822.09;107910;1263;43054;-80
2022/05/02 06:18:49;;;;;;;9.40;7.10;;;;;;;17.99;46.53;96825.77;107914;1265;40014;-80
2022/05/02 06:21:24;;;;;;;9.00;7.70;;;;;;;17.57;46.85;96823.48;107948;1264;40517;-80
2022/05/02 06:23:58;;;;;;;8.60;7.00;;;;;;;17.60;47.37;96823.13;107861;1265;32339;-81
2022/05/02 06:26:29;;;;;;;8.50;7.30;;;;;;;18.20;47.33;96826.36;108000;1264;40365;-81
2022/05/02 06:29:02;;;;;;;8.30;7.20;;;;;;;19.54;47.11;96821.80;107963;1263;37081;-80
2022/05/02 06:31:36;;;;;;;8.50;7.10;;;;;;;20.79;46.04;96817.39;107996;1263;41371;-81
2022/05/02 06:34:09;;;;;;;9.00;7.40;;;;;;;22.02;43.27;96821.91;107939;1263;40411;-81
2022/05/02 06:36:56;;;;;;;7.00;6.00;;;;;;;23.32;43.33;96819.20;107878;1263;37739;-81
2022/05/02 06:39:46;;;;;;;7.60;6.50;;;;;;;24.76;41.14;96814.84;107947;1265;35080;-79
2022/05/02 06:42:29;;;;;;;8.00;6.20;;;;;;;26.30;39.86;96821.58;108914;1263;46259;-81
2022/05/02 06:45:16;;;;;;;7.40;6.00;;;;;;;26.99;34.72;96819.48;108131;1264;28360;-81
2022/05/02 06:48:02;;;;;;;6.20;5.60;;;;;;;26.98;35.70;96820.17;107948;1265;103155;-81
2022/05/02 06:50:37;;;;;;;7.80;6.50;;;;;;;27.25;33.28;96820.49;106341;1264;2294182;-81
2022/05/02 06:53:23;;;;;;;7.30;6.50;;;;;;;27.77;33.81;96817.90;108015;1264;55649;-78
2022/05/02 06:56:02;;;;;;;8.80;7.10;;;;;;;27.65;30.23;96817.23;107823;1264;40695;-78
2022/05/02 06:58:48;;;;;;;8.90;7.30;;;;;;;27.11;31.84;96823.45;108017;1264;47143;-78
2022/05/02 07:01:30;;;;;;;8.40;7.60;;;;;;;27.80;32.75;96823.36;107950;1263;36089;-78
2022/05/02 07:04:22;;;;;;;10.30;8.20;;;;;;;27.64;31.63;96825.41;108032;1265;42052;-78
2022/05/02 07:07:16;;;;;;;9.60;8.40;;;;;;;26.53;29.35;96825.17;108140;1263;33406;-77
2022/05/02 07:09:52;;;;;;;9.00;8.00;;;;;;;24.77;31.02;96827.95;108043;1264;51052;-78
2022/05/02 07:12:25;;;;;;;10.20;8.50;;;;;;;24.64;32.99;96830.32;108118;1264;40779;-78
2022/05/02 07:15:09;;;;;;;11.10;8.10;;;;;;;24.67;33.06;96827.89;108097;1264;33679;-78
2022/05/02 07:18:06;;;;;;;9.90;7.70;;;;;;;25.99;33.51;96821.73;108057;1264;53881;-77
2022/05/02 07:20:51;;;;;;;8.10;7.30;;;;;;;28.06;32.12;96822.24;108231;1264;34742;-78
2022/05/02 07:23:35;;;;;;;8.10;7.30;;;;;;;28.92;29.50;96821.29;108074;1265;48018;-80
2022/05/02 07:26:11;;;;;;;10.00;7.80;;;;;;;28.71;28.87;96820.74;108153;1265;38236;-81
2022/05/02 07:28:45;;;;;;;9.20;8.00;;;;;;;29.55;29.29;96823.77;108119;1264;38509;-80
2022/05/02 07:31:19;;;;;;;8.20;7.10;;;;;;;30.66;28.96;96824.48;108015;1265;42538;-80
2022/05/02 07:33:51;;;;;;;7.40;6.60;;;;;;;31.51;27.45;96819.18;107972;1264;38756;-80
2022/05/02 07:36:24;;;;;;;7.80;6.60;;;;;;;31.23;25.23;96820.98;107958;1265;34128;-80
2022/05/02 07:39:03;;;;;;;7.30;6.40;;;;;;;31.05;26.36;96819.98;107922;1264;36634;-80
2022/05/02 07:41:36;;;;;;;6.80;6.10;;;;;;;32.08;27.00;96818.80;107988;1265;50692;-80
2022/05/02 07:44:08;;;;;;;7.80;7.00;;;;;;;32.74;24.76;96817.87;108007;1264;34755;-81
2022/05/02 07:46:41;;;;;;;7.70;6.20;;;;;;;32.08;22.55;96816.45;107989;1265;32877;-80
2022/05/02 07:49:14;;;;;;;5.90;5.30;;;;;;;30.90;22.02;96816.91;107956;1264;37172;-81
2022/05/02 07:51:50;;;;;;;6.60;6.00;;;;;;;30.00;23.65;96815.73;107999;1265;32852;-81
2022/05/02 07:54:25;;;;;;;7.40;5.90;;;;;;;30.18;22.95;96812.27;107923;1265;79935;-81
2022/05/02 07:57:00;;;;;;;6.90;6.00;;;;;;;30.20;23.85;96812.48;107891;1264;48801;-81
2022/05/02 07:59:35;;;;;;;7.60;5.90;;;;;;;30.64;23.84;96814.19;107969;1265;36581;-81
2022/05/02 08:02:07;;;;;;;6.10;5.50;;;;;;;31.71;23.34;96811.88;108080;1264;33275;-81
2022/05/02 08:04:40;;;;;;;6.60;5.40;;;;;;;31.34;21.53;96813.71;107937;1264;48016;-81
2022/05/02 08:07:14;;;;;;;6.00;5.40;;;;;;;30.75;22.48;96814.10;107708;1266;48672;-81
2022/05/02 08:10:39;;;;;;;6.60;5.60;;;;;;;30.96;22.23;96812.50;107829;1266;52131;-81
2022/05/02 08:13:26;;;;;;;6.20;5.50;;;;;;;30.86;23.46;96814.70;107953;1265;39629;-81
2022/05/02 08:16:03;;;;;;;6.10;5.50;;;;;;;31.78;21.88;96809.45;107920;1264;61935;-82
2022/05/02 08:18:59;;;;;;;6.90;4.80;;;;;;;31.09;21.45;96812.59;108025;1263;33127;-81
2022/05/02 08:21:39;;;;;;;6.70;6.00;;;;;;;31.93;23.48;96812.17;107972;1263;35599;-81
2022/05/02 08:27:34;;;;;;;6.60;5.80;;;;;;;32.98;19.90;96809.97;107914;1265;49095;-81
2022/05/02 08:30:11;;;;;;;7.30;6.00;;;;;;;31.54;21.13;96808.95;108025;1264;38004;-81
2022/05/02 08:32:52;;;;;;;6.30;5.70;;;;;;;31.65;22.00;96804.67;107987;1265;33244;-81
2022/05/02 08:35:34;;;;;;;6.70;5.50;;;;;;;32.05;22.22;96802.25;108002;1264;38845;-82
2022/05/02 08:38:26;;;;;;;6.10;5.00;;;;;;;33.10;22.73;96802.85;108103;1263;47422;-81
2022/05/02 08:41:28;;;;;;;5.40;4.90;;;;;;;34.36;22.24;96799.81;107963;1264;48122;-82
2022/05/02 08:44:39;;;;;;;6.80;5.10;;;;;;;34.30;18.93;96796.50;107931;1266;43241;-81
2022/05/02 08:48:00;;;;;;;6.00;5.10;;;;;;;30.80;21.99;96800.73;107963;1264;39635;-80
2022/05/02 08:50:55;;;;;;;6.60;5.80;;;;;;;31.69;23.24;96793.96;107588;1268;42070;-81
2022/05/02 08:54:06;;;;;;;6.90;6.20;;;;;;;32.87;22.89;96794.27;107975;1266;35165;-81
2022/05/02 08:56:54;;;;;;;8.00;6.60;;;;;;;33.47;22.37;96793.36;108060;1264;31258;-81
2022/05/02 08:59:50;;;;;;;7.00;6.00;;;;;;;33.99;22.24;96788.98;107943;1265;39348;-81
2022/05/02 09:02:50;;;;;;;6.90;6.20;;;;;;;34.47;21.84;96788.09;107924;1264;34410;-81
2022/05/02 09:05:46;;;;;;;7.90;6.40;;;;;;;34.73;21.61;96790.90;107964;1264;34981;-81
2022/05/02 09:08:56;;;;;;;6.80;6.10;;;;;;;33.77;21.22;96788.66;107987;1263;44617;-81
2022/05/02 09:11:54;;;;;;;7.70;6.80;;;;;;;33.49;20.82;96780.59;107977;1263;43763;-81
2022/05/02 09:15:05;;;;;;;7.70;6.90;;;;;;;33.04;22.36;96778.73;107979;1265;34414;-81
2022/05/02 09:18:12;;;;;;;8.30;6.70;;;;;;;33.43;21.15;96777.43;108060;1264;32973;-79
2022/05/02 09:21:01;;;;;;;8.00;7.20;;;;;;;32.48;21.35;96783.16;108002;1264;34307;-78
2022/05/02 09:24:02;;;;;;;10.90;7.60;;;;;;;31.76;21.92;96778.20;107939;1264;38626;-78
2022/05/02 09:27:08;;;;;;;9.60;6.70;;;;;;;30.36;22.68;96780.62;107984;1264;35494;-81
2022/05/02 09:30:19;;;;;;;7.20;6.30;;;;;;;28.65;24.24;96776.63;107989;1264;37922;-79
2022/05/02 09:33:06;;;;;;;8.40;7.50;;;;;;;27.19;23.90;96774.15;107965;1265;35249;-80
2022/05/02 09:35:53;;;;;;;9.90;7.10;;;;;;;25.40;26.08;96771.06;108023;1264;36956;-81
2022/05/02 09:38:29;;;;;;;10.90;7.20;;;;;;;25.08;27.52;96769.75;107970;1264;36066;-81
2022/05/02 09:41:06;;;;;;;8.90;6.80;;;;;;;24.76;27.52;96759.67;107955;1263;35330;-81
2022/05/02 09:50:15;;;;;;;8.80;7.10;;;;;;;24.57;28.96;96758.34;107959;1263;36712;-81
2022/05/02 09:53:18;;;;;;;9.20;7.70;;;;;;;24.43;28.36;96756.04;108009;1265;39131;-80
2022/05/02 09:58:57;;;;;;;10.30;6.80;;;;;;;24.69;28.50;96744.73;107937;1264;43240;-81
2022/05/02 10:01:33;;;;;;;9.40;7.00;;;;;;;24.45;27.81;96751.20;107943;1265;32560;-81
2022/05/02 10:04:31;;;;;;;8.00;7.10;;;;;;;23.78;28.01;96744.95;108041;1266;34478;-82
2022/05/02 10:07:08;;;;;;;8.20;6.70;;;;;;;23.37;29.50;96742.89;108060;1266;33896;-82
2022/05/02 10:10:00;;;;;;;9.40;7.00;;;;;;;23.49;28.97;96741.42;107927;1266;43794;-79
2022/05/02 10:12:41;;;;;;;10.00;7.90;;;;;;;22.90;28.47;96736.99;107897;1265;43856;-81
2022/05/02 10:15:30;;;;;;;9.10;7.00;;;;;;;21.86;28.79;96741.45;107919;1264;49013;-81
2022/05/02 10:18:23;;;;;;;9.10;7.70;;;;;;;21.25;30.17;96735.22;107999;1263;34458;-81
2022/05/02 10:21:04;;;;;;;8.80;7.30;;;;;;;20.99;30.91;96734.95;107982;1266;37732;-81
2022/05/02 10:24:03;;;;;;;9.90;6.90;;;;;;;21.23;31.39;96732.77;108039;1264;30756;-81
2022/05/02 10:26:41;;;;;;;9.90;7.30;;;;;;;21.59;30.42;96727.65;107944;1264;44180;-81
2022/05/02 10:29:45;;;;;;;8.50;7.50;;;;;;;21.37;30.20;96730.77;107982;1265;39727;-81
2022/05/02 10:32:38;;;;;;;9.50;7.50;;;;;;;21.11;30.72;96729.37;107939;1263;88382;-82
2022/05/02 10:35:14;;;;;;;8.80;7.10;;;;;;;20.92;30.79;96723.27;107962;1266;43339;-82
2022/05/02 10:37:52;;;;;;;8.80;7.10;;;;;;;20.96;31.18;96723.84;107993;1266;38819;-81
2022/05/02 10:40:34;;;;;;;9.00;6.70;;;;;;;21.14;31.80;96719.95;107934;1265;46065;-81
2022/05/02 10:43:08;;;;;;;9.30;6.60;;;;;;;21.11;31.38;96721.11;107929;1266;34101;-82
2022/05/02 10:45:43;;;;;;;8.40;6.70;;;;;;;20.74;30.85;96718.06;108015;1265;38755;-81
2022/05/02 10:48:24;;;;;;;8.10;7.10;;;;;;;20.38;31.17;96714.13;107983;1264;35354;-82
2022/05/02 10:51:01;;;;;;;9.30;7.10;;;;;;;20.14;32.11;96710.16;107978;1264;33248;-82
2022/05/02 10:53:49;;;;;;;7.70;6.30;;;;;;;20.02;31.35;96707.45;107944;1264;39113;-82
2022/05/02 10:56:33;;;;;;;9.40;6.90;;;;;;;20.06;31.78;96710.30;107965;1265;42381;-82
2022/05/02 10:59:08;;;;;;;7.70;6.90;;;;;;;19.93;31.33;96705.34;107994;1264;35433;-82
2022/05/02 11:02:21;;;;;;;9.90;7.10;;;;;;;19.64;31.61;96697.71;108041;1265;34249;-82
2022/05/02 11:05:11;;;;;;;8.10;6.50;;;;;;;19.49;32.74;96701.17;107922;1265;40037;-81
2022/05/02 11:07:55;;;;;;;7.60;6.70;;;;;;;19.71;33.69;96695.70;108031;1264;44742;-81
2022/05/02 11:10:30;;;;;;;8.40;6.50;;;;;;;20.27;32.68;96695.08;107962;1264;44046;-82
2022/05/02 11:13:20;;;;;;;7.80;6.70;;;;;;;20.41;32.64;96694.52;107931;1265;49864;-82
2022/05/02 11:16:05;;;;;;;11.50;6.90;;;;;;;20.28;32.23;96695.89;107992;1264;30773;-82
2022/05/02 11:22:13;;;;;;;8.80;6.20;;;;;;;21.12;33.75;96698.65;107653;1267;44707;-82
2022/05/02 11:24:53;;;;;;;9.80;6.60;;;;;;;21.50;32.20;96695.59;107923;1264;47143;-81
2022/05/02 11:27:38;;;;;;;7.90;6.40;;;;;;;21.64;32.05;96690.77;107942;1265;35773;-81
2022/05/02 11:30:12;;;;;;;9.90;6.20;;;;;;;21.76;31.89;96687.68;108012;1265;39728;-82
2022/05/02 11:33:12;;;;;;;10.50;6.10;;;;;;;21.80;30.80;96685.55;108023;1265;33641;-81
2022/05/02 11:35:47;;;;;;;;;;;;;;;21.26;30.06;96686.32;107977;1265;32502;-82
2022/05/02 11:38:29;;;;;;;7.20;5.90;;;;;;;20.94;30.53;96690.98;107913;1265;45102;-82
2022/05/02 11:41:12;;;;;;;9.40;5.90;;;;;;;20.92;30.20;96685.45;107968;1264;41633;-81
2022/05/02 11:43:46;;;;;;;6.80;5.80;;;;;;;20.93;30.53;96684.64;107962;1265;44849;-81
2022/05/02 11:46:22;;;;;;;7.90;6.10;;;;;;;20.81;30.53;96682.37;108084;1265;36070;-82
2022/05/02 11:49:21;;;;;;;10.20;6.10;;;;;;;20.69;30.86;96675.30;107940;1265;39102;-82
2022/05/02 11:51:53;;;;;;;6.60;5.90;;;;;;;20.51;32.03;96674.21;107940;1265;35631;-81
2022/05/02 11:54:36;;;;;;;8.10;6.10;;;;;;;20.44;31.91;96674.52;107884;1265;46276;-81
2022/05/02 11:57:28;;;;;;;6.30;5.60;;;;;;;20.18;32.51;96673.13;108097;1264;39759;-82
2022/05/02 12:00:05;;;;;;;7.40;6.00;;;;;;;20.19;31.93;96668.84;107988;1265;44758;-81
2022/05/02 12:02:51;;;;;;;7.70;5.90;;;;;;;20.39;33.34;96669.83;108204;1265;30752;-82
2022/05/02 12:05:27;;;;;;;7.30;6.20;;;;;;;20.85;32.56;96670.10;108080;1265;43411;-82
2022/05/02 12:07:59;;;;;;;6.70;6.00;;;;;;;21.19;33.00;96667.95;108103;1265;44479;-82
2022/05/02 12:10:39;;;;;;;8.50;6.60;;;;;;;21.06;30.76;96669.89;107999;1265;44813;-82
2022/05/02 12:13:12;;;;;;;8.60;6.00;;;;;;;20.85;32.23;96664.39;107981;1265;43017;-81
2022/05/02 12:16:03;;;;;;;8.10;6.10;;;;;;;21.15;31.84;96660.59;108009;1265;44159;-82
2022/05/02 12:18:46;;;;;;;6.80;5.90;;;;;;;21.28;31.37;96657.17;107993;1265;45884;-82
2022/05/02 12:21:31;;;;;;;7.80;6.00;;;;;;;21.52;31.78;96647.48;107993;1264;38460;-82
2022/05/02 12:24:04;;;;;;;8.70;5.50;;;;;;;21.66;31.62;96647.90;107910;1263;36469;-82
2022/05/02 12:26:44;;;;;;;7.90;5.80;;;;;;;21.56;30.55;96645.41;108003;1262;34104;-82
2022/05/02 12:29:19;;;;;;;8.10;6.10;;;;;;;20.97;30.80;96645.01;107945;1265;42815;-81
2022/05/02 12:31:59;;;;;;;7.60;5.70;;;;;;;20.82;31.30;96640.75;107952;1265;38347;-82
2022/05/02 12:34:40;;;;;;;7.90;5.90;;;;;;;20.94;32.26;96636.23;107964;1264;37155;-82
2022/05/02 12:37:20;;;;;;;8.90;6.20;;;;;;;21.14;32.15;96633.46;107972;1265;43307;-81
2022/05/02 12:39:50;;;;;;;;;;;;;;;21.42;32.24;96630.48;107790;1266;53832;-82
2022/05/02 12:42:26;;;;;;;7.00;6.00;;;;;;;21.75;33.13;96629.85;107846;1265;44790;-81
2022/05/02 12:45:07;;;;;;;7.10;5.80;;;;;;;21.96;31.54;96626.16;107769;1266;55964;-82